Time;durP1;ratioP1;P1;durP2;ratioP2;P2;SDS_P1;SDS_P2;PMS_P1;PMS_P2;Temp;Humidity;BMP_temperature;BMP_pressure;BME280_temperature;BME280_humidity;BME280_pressure;Samples;Min_cycle;Max_cycle;Signal;HPM_P1;HPM_P2
2022/01/10 00:01:46;;;;;;;35.83;11.47;;;;;;;;;;5042033;28;20189;-69
2022/01/10 00:04:11;;;;;;;41.27;11.43;;;;;;;;;;5044733;28;20636;-69
2022/01/10 00:06:37;;;;;;;31.90;11.97;;;;;;;;;;5045178;28;20241;-68
2022/01/10 00:09:03;;;;;;;32.67;11.97;;;;;;;;;;5047184;28;20193;-68
2022/01/10 00:11:29;;;;;;;31.30;11.73;;;;;;;;;;5049800;28;20267;-68
2022/01/10 00:13:55;;;;;;;28.70;11.77;;;;;;;;;;5047129;28;20497;-68
2022/01/10 00:16:20;;;;;;;31.83;12.57;;;;;;;;;;5043273;28;20650;-68
2022/01/10 00:18:45;;;;;;;35.37;13.20;;;;;;;;;;5047539;28;20543;-68
2022/01/10 00:21:11;;;;;;;30.87;12.63;;;;;;;;;;5046409;28;20264;-69
2022/01/10 00:23:36;;;;;;;38.63;13.87;;;;;;;;;;5046315;28;20371;-69
2022/01/10 00:26:02;;;;;;;39.97;13.93;;;;;;;;;;5043052;28;20231;-68
2022/01/10 00:28:27;;;;;;;42.60;15.53;;;;;;;;;;5048075;28;20186;-68
2022/01/10 00:30:53;;;;;;;37.90;14.97;;;;;;;;;;5048611;28;20284;-68
2022/01/10 00:33:18;;;;;;;38.03;14.30;;;;;;;;;;5044371;28;20232;-68
2022/01/10 00:35:43;;;;;;;39.30;15.33;;;;;;;;;;5048457;28;20193;-68
2022/01/10 00:38:09;;;;;;;40.10;15.13;;;;;;;;;;5045213;28;20641;-67
2022/01/10 00:40:34;;;;;;;33.90;14.70;;;;;;;;;;5047418;28;20177;-68
2022/01/10 00:43:00;;;;;;;36.07;15.37;;;;;;;;;;5046183;28;20622;-68
2022/01/10 00:45:27;;;;;;;38.73;16.13;;;;;;;;;;5046771;28;20192;-68
2022/01/10 00:47:58;;;;;;;38.07;17.37;;;;;;;;;;5045526;28;20189;-69
2022/01/10 00:50:27;;;;;;;40.43;15.80;;;;;;;;;;5047321;28;20252;-68
2022/01/10 00:52:53;;;;;;;43.73;17.27;;;;;;;;;;5047943;28;20240;-68
2022/01/10 00:55:19;;;;;;;39.07;16.93;;;;;;;;;;5041699;28;20181;-68
2022/01/10 00:57:45;;;;;;;41.17;15.77;;;;;;;;;;5047212;28;20530;-68
2022/01/10 01:00:12;;;;;;;40.70;17.10;;;;;;;;;;5038428;28;20234;-68
2022/01/10 01:02:38;;;;;;;37.90;16.53;;;;;;;;;;5039711;28;20615;-68
2022/01/10 01:05:07;;;;;;;41.73;17.13;;;;;;;;;;5045401;28;20189;-68
2022/01/10 01:07:33;;;;;;;42.67;17.27;;;;;;;;;;5045480;28;20655;-68
2022/01/10 01:10:22;;;;;;;45.60;17.73;;;;;;;;;;5045430;28;20185;-68
2022/01/10 01:12:54;;;;;;;42.80;18.73;;;;;;;;;;5046820;28;20283;-68
2022/01/10 01:15:24;;;;;;;39.77;18.07;;;;;;;;;;5046663;28;20676;-67
2022/01/10 01:20:43;;;;;;;48.50;17.70;;;;;;;;;;5047604;28;20193;-67
2022/01/10 01:25:57;;;;;;;43.40;18.00;;;;;;;;;;5044479;28;20528;-68
2022/01/10 01:28:22;;;;;;;44.57;18.87;;;;;;;;;;5044516;28;20205;-67
2022/01/10 01:30:48;;;;;;;44.67;19.40;;;;;;;;;;5043880;28;20198;-67
2022/01/10 01:33:15;;;;;;;47.20;20.07;;;;;;;;;;5040565;28;20197;-68
2022/01/10 01:35:40;;;;;;;46.63;18.50;;;;;;;;;;5041608;28;20845;-68
2022/01/10 01:38:07;;;;;;;46.37;19.80;;;;;;;;;;5045181;28;20190;-68
2022/01/10 01:40:34;;;;;;;39.27;19.17;;;;;;;;;;5044060;28;20219;-68
2022/01/10 01:42:59;;;;;;;44.83;19.90;;;;;;;;;;5044382;28;20309;-68
2022/01/10 01:45:43;;;;;;;49.37;19.50;;;;;;;;;;5042357;28;20252;-66
2022/01/10 01:48:09;;;;;;;46.53;19.73;;;;;;;;;;5044315;28;20189;-66
2022/01/10 01:50:35;;;;;;;40.83;18.63;;;;;;;;;;5046572;28;20209;-66
2022/01/10 01:53:01;;;;;;;41.87;18.87;;;;;;;;;;5043604;28;20594;-66
2022/01/10 01:55:27;;;;;;;45.37;19.90;;;;;;;;;;5046174;28;20177;-66
2022/01/10 01:57:52;;;;;;;51.30;21.03;;;;;;;;;;5045557;28;20174;-67
2022/01/10 02:00:19;;;;;;;47.17;20.77;;;;;;;;;;5039369;28;20665;-68
2022/01/10 02:02:50;;;;;;;41.13;20.00;;;;;;;;;;5042234;28;20240;-67
2022/01/10 02:05:15;;;;;;;48.70;20.00;;;;;;;;;;5045331;28;20177;-67
2022/01/10 02:07:40;;;;;;;45.70;19.33;;;;;;;;;;5044474;28;20275;-67
2022/01/10 02:10:07;;;;;;;45.50;20.50;;;;;;;;;;5043963;28;20643;-67
2022/01/10 02:12:32;;;;;;;46.17;19.10;;;;;;;;;;5036986;28;20266;-67
2022/01/10 02:14:58;;;;;;;49.10;19.67;;;;;;;;;;5034682;28;20257;-67
2022/01/10 02:17:33;;;;;;;37.10;17.57;;;;;;;;;;5042368;28;20554;-67
2022/01/10 02:20:00;;;;;;;43.80;17.97;;;;;;;;;;5045524;28;20189;-67
2022/01/10 02:22:25;;;;;;;42.63;18.33;;;;;;;;;;5039956;28;20277;-67
2022/01/10 02:24:51;;;;;;;47.07;20.27;;;;;;;;;;5045229;28;20212;-66
2022/01/10 02:27:17;;;;;;;54.70;19.57;;;;;;;;;;5041854;28;20826;-66
2022/01/10 02:29:42;;;;;;;48.17;20.87;;;;;;;;;;5036960;28;20691;-67
2022/01/10 02:32:07;;;;;;;48.93;20.23;;;;;;;;;;5045002;28;20597;-67
2022/01/10 02:34:33;;;;;;;50.47;21.50;;;;;;;;;;5041908;28;20177;-67
2022/01/10 02:37:00;;;;;;;42.23;19.93;;;;;;;;;;5044962;28;20192;-66
2022/01/10 02:39:26;;;;;;;56.23;21.50;;;;;;;;;;5041249;28;20216;-66
2022/01/10 02:41:51;;;;;;;48.93;22.37;;;;;;;;;;5044370;28;20731;-67
2022/01/10 02:44:17;;;;;;;54.00;22.03;;;;;;;;;;5033128;28;20214;-67
2022/01/10 02:46:44;;;;;;;50.80;22.70;;;;;;;;;;5043143;28;20719;-67
2022/01/10 02:49:15;;;;;;;51.87;22.07;;;;;;;;;;5038053;28;20185;-67
2022/01/10 02:51:41;;;;;;;61.47;21.67;;;;;;;;;;5043889;28;20231;-66
2022/01/10 02:54:07;;;;;;;46.83;20.77;;;;;;;;;;5033234;28;20178;-66
2022/01/10 02:56:33;;;;;;;40.93;19.53;;;;;;;;;;5043518;28;20208;-65
2022/01/10 02:58:59;;;;;;;51.60;21.67;;;;;;;;;;5038755;28;20252;-66
2022/01/10 03:01:24;;;;;;;52.87;21.33;;;;;;;;;;5044866;28;20232;-68
2022/01/10 03:03:49;;;;;;;43.07;21.73;;;;;;;;;;5041654;28;20216;-66
2022/01/10 03:06:15;;;;;;;51.40;21.07;;;;;;;;;;5039559;28;20196;-67
2022/01/10 03:08:41;;;;;;;49.40;20.33;;;;;;;;;;5038009;28;20198;-67
2022/01/10 03:11:06;;;;;;;45.57;20.40;;;;;;;;;;5037686;28;20562;-65
2022/01/10 03:13:32;;;;;;;51.50;21.43;;;;;;;;;;5042251;28;20625;-67
2022/01/10 03:15:57;;;;;;;49.60;21.17;;;;;;;;;;5046559;28;20320;-66
2022/01/10 03:18:22;;;;;;;54.93;22.47;;;;;;;;;;5040159;28;20181;-66
2022/01/10 03:20:48;;;;;;;56.37;21.93;;;;;;;;;;5044459;28;20189;-67
2022/01/10 03:23:13;;;;;;;55.20;23.20;;;;;;;;;;5042360;28;20236;-66
2022/01/10 03:25:38;;;;;;;50.27;22.77;;;;;;;;;;5043131;28;20189;-67
2022/01/10 03:28:04;;;;;;;55.73;23.13;;;;;;;;;;5042798;28;20177;-67
2022/01/10 03:30:29;;;;;;;60.07;24.67;;;;;;;;;;5045769;28;20212;-67
2022/01/10 03:32:58;;;;;;;57.47;21.30;;;;;;;;;;5043980;28;20165;-67
2022/01/10 03:35:23;;;;;;;50.70;21.60;;;;;;;;;;5043623;28;20658;-66
2022/01/10 03:37:48;;;;;;;55.20;22.73;;;;;;;;;;5045285;28;20502;-68
2022/01/10 03:40:14;;;;;;;57.10;24.27;;;;;;;;;;5044666;28;20654;-67
2022/01/10 03:42:39;;;;;;;55.33;20.50;;;;;;;;;;5043616;28;20217;-67
2022/01/10 03:45:07;;;;;;;42.70;21.03;;;;;;;;;;5043708;28;21034;-67
2022/01/10 03:47:32;;;;;;;52.27;21.50;;;;;;;;;;5043459;28;20240;-66
2022/01/10 03:49:57;;;;;;;52.33;22.87;;;;;;;;;;5041994;28;20185;-66
2022/01/10 03:52:23;;;;;;;56.40;22.40;;;;;;;;;;5041821;28;20260;-67
2022/01/10 03:54:49;;;;;;;50.40;22.63;;;;;;;;;;5043460;28;20726;-66
2022/01/10 03:57:14;;;;;;;48.30;20.90;;;;;;;;;;5041342;28;20225;-66
2022/01/10 03:59:40;;;;;;;49.13;20.90;;;;;;;;;;5043609;28;20229;-66
2022/01/10 04:02:05;;;;;;;52.03;21.27;;;;;;;;;;5043642;28;20284;-66
2022/01/10 04:04:33;;;;;;;46.13;18.60;;;;;;;;;;5040745;28;20712;-66
2022/01/10 04:06:58;;;;;;;44.57;21.80;;;;;;;;;;5039756;28;20200;-66
2022/01/10 04:09:23;;;;;;;50.70;20.10;;;;;;;;;;5043670;28;20272;-67
2022/01/10 04:11:50;;;;;;;49.43;20.50;;;;;;;;;;5042360;28;20268;-67
2022/01/10 04:14:15;;;;;;;48.47;21.43;;;;;;;;;;5043254;28;20537;-67
2022/01/10 04:16:41;;;;;;;49.50;20.30;;;;;;;;;;5042953;28;20186;-67
2022/01/10 04:19:06;;;;;;;55.00;23.00;;;;;;;;;;5042415;28;20264;-66
2022/01/10 04:21:32;;;;;;;56.33;22.03;;;;;;;;;;5043886;28;20224;-67
2022/01/10 04:23:57;;;;;;;54.87;22.27;;;;;;;;;;5035624;28;20850;-67
2022/01/10 04:26:23;;;;;;;44.97;21.17;;;;;;;;;;5042164;28;20189;-67
2022/01/10 04:28:48;;;;;;;43.90;20.83;;;;;;;;;;5042580;28;20264;-68
2022/01/10 04:31:14;;;;;;;51.47;23.20;;;;;;;;;;5046660;28;20656;-68
2022/01/10 04:33:39;;;;;;;40.57;20.10;;;;;;;;;;5044287;28;20504;-67
2022/01/10 04:36:05;;;;;;;55.03;23.03;;;;;;;;;;5047955;28;20182;-67
2022/01/10 04:38:30;;;;;;;42.77;21.40;;;;;;;;;;5041452;28;20186;-67
2022/01/10 04:40:56;;;;;;;49.50;20.83;;;;;;;;;;5048056;28;20648;-67
2022/01/10 04:43:22;;;;;;;42.00;20.17;;;;;;;;;;5043750;28;20223;-65
2022/01/10 04:45:47;;;;;;;47.60;20.73;;;;;;;;;;5047319;28;20557;-67
2022/01/10 04:48:17;;;;;;;46.50;20.50;;;;;;;;;;5041365;28;20242;-68
2022/01/10 04:53:55;;;;;;;40.70;19.70;;;;;;;;;;5005615;28;20217;-67
2022/01/10 04:56:21;;;;;;;39.30;19.27;;;;;;;;;;5003643;28;20205;-67
2022/01/10 04:58:48;;;;;;;45.77;19.90;;;;;;;;;;5025966;28;20255;-67
2022/01/10 05:01:14;;;;;;;35.23;18.50;;;;;;;;;;5045727;28;20185;-67
2022/01/10 05:03:40;;;;;;;52.00;19.33;;;;;;;;;;5045067;28;20206;-68
2022/01/10 05:06:06;;;;;;;51.07;21.47;;;;;;;;;;5043797;28;20509;-67
2022/01/10 05:08:32;;;;;;;49.50;20.80;;;;;;;;;;5046728;28;20177;-67
2022/01/10 05:10:57;;;;;;;45.27;20.60;;;;;;;;;;5047087;28;20215;-67
2022/01/10 05:13:23;;;;;;;44.53;21.10;;;;;;;;;;5040240;28;20178;-67
2022/01/10 05:15:51;;;;;;;45.07;20.60;;;;;;;;;;5043248;28;20580;-67
2022/01/10 05:18:18;;;;;;;45.20;21.47;;;;;;;;;;5042556;28;20702;-68
2022/01/10 05:20:44;;;;;;;42.57;20.47;;;;;;;;;;5043531;28;20419;-67
2022/01/10 05:23:10;;;;;;;39.00;20.93;;;;;;;;;;5042897;28;20208;-67
2022/01/10 05:25:39;;;;;;;48.30;20.83;;;;;;;;;;5046021;28;20188;-68
2022/01/10 05:28:05;;;;;;;44.03;20.80;;;;;;;;;;5042315;28;20208;-67
2022/01/10 05:30:31;;;;;;;48.57;20.97;;;;;;;;;;5039596;28;20688;-68
2022/01/10 05:32:56;;;;;;;41.53;20.03;;;;;;;;;;5046460;28;20174;-67
2022/01/10 05:35:22;;;;;;;48.67;20.77;;;;;;;;;;5046477;28;20527;-67
2022/01/10 05:37:47;;;;;;;41.33;19.90;;;;;;;;;;5042903;28;20180;-67
2022/01/10 05:40:13;;;;;;;40.57;19.73;;;;;;;;;;5045545;28;20531;-67
2022/01/10 05:42:39;;;;;;;33.50;19.03;;;;;;;;;;5042663;28;20198;-67
2022/01/10 05:45:04;;;;;;;40.27;19.47;;;;;;;;;;5044564;28;20316;-67
2022/01/10 05:47:41;;;;;;;45.37;20.37;;;;;;;;;;5042938;28;20671;-66
2022/01/10 05:50:08;;;;;;;45.80;20.63;;;;;;;;;;5040847;28;20227;-67
2022/01/10 05:52:34;;;;;;;38.90;20.13;;;;;;;;;;5044177;28;20189;-67
2022/01/10 05:54:59;;;;;;;48.00;21.37;;;;;;;;;;5043774;28;20189;-67
2022/01/10 05:57:27;;;;;;;39.67;20.27;;;;;;;;;;5043388;28;20182;-67
2022/01/10 05:59:52;;;;;;;46.33;23.27;;;;;;;;;;5043621;28;20229;-67
2022/01/10 06:02:18;;;;;;;42.97;21.43;;;;;;;;;;5041236;28;20634;-66
2022/01/10 06:04:46;;;;;;;44.07;20.40;;;;;;;;;;5040447;28;20188;-67
2022/01/10 06:07:13;;;;;;;39.07;19.07;;;;;;;;;;5038533;28;20276;-68
2022/01/10 06:09:38;;;;;;;50.27;22.60;;;;;;;;;;5039904;28;20265;-67
2022/01/10 06:12:04;;;;;;;51.40;23.73;;;;;;;;;;5045270;28;20571;-67
2022/01/10 06:14:30;;;;;;;63.20;23.97;;;;;;;;;;5043443;28;20197;-68
2022/01/10 06:16:55;;;;;;;45.27;23.03;;;;;;;;;;5040870;28;20185;-67
2022/01/10 06:19:20;;;;;;;61.27;25.93;;;;;;;;;;5042799;28;20181;-67
2022/01/10 06:21:46;;;;;;;56.47;26.07;;;;;;;;;;5044364;28;20221;-67
2022/01/10 06:24:11;;;;;;;61.87;25.80;;;;;;;;;;5043665;28;20228;-66
2022/01/10 06:26:36;;;;;;;75.80;27.07;;;;;;;;;;5047457;28;20248;-68
2022/01/10 06:29:02;;;;;;;61.00;28.50;;;;;;;;;;5040018;28;20240;-67
2022/01/10 06:31:28;;;;;;;95.27;31.40;;;;;;;;;;5044137;28;20236;-67
2022/01/10 06:33:53;;;;;;;101.60;32.33;;;;;;;;;;5037095;28;20541;-67
2022/01/10 06:36:19;;;;;;;99.50;33.83;;;;;;;;;;5042690;28;20183;-68
2022/01/10 06:38:44;;;;;;;99.20;33.33;;;;;;;;;;5044785;28;20213;-67
2022/01/10 06:41:09;;;;;;;73.07;30.47;;;;;;;;;;5040866;28;20181;-67
2022/01/10 06:43:37;;;;;;;168.43;38.90;;;;;;;;;;5034445;28;20296;-68
2022/01/10 06:46:03;;;;;;;100.60;32.87;;;;;;;;;;5042631;28;20211;-68
2022/01/10 06:48:28;;;;;;;126.47;34.57;;;;;;;;;;5041818;28;20197;-67
2022/01/10 06:50:54;;;;;;;123.33;35.80;;;;;;;;;;5042899;28;20185;-67
2022/01/10 06:53:20;;;;;;;209.93;43.50;;;;;;;;;;5044353;28;20177;-67
2022/01/10 06:55:45;;;;;;;123.73;39.00;;;;;;;;;;5040964;28;20185;-68
2022/01/10 06:58:11;;;;;;;67.00;30.13;;;;;;;;;;5045079;28;20186;-67
2022/01/10 07:00:37;;;;;;;127.20;35.77;;;;;;;;;;5037457;28;20221;-67
2022/01/10 07:03:02;;;;;;;97.80;33.83;;;;;;;;;;5039223;28;20300;-68
2022/01/10 07:05:28;;;;;;;106.80;30.33;;;;;;;;;;5040788;28;20311;-68
2022/01/10 07:07:54;;;;;;;86.40;33.83;;;;;;;;;;5039396;28;20189;-68
2022/01/10 07:10:20;;;;;;;97.93;33.97;;;;;;;;;;5038985;28;20209;-68
2022/01/10 07:12:45;;;;;;;73.33;30.30;;;;;;;;;;5040619;28;20193;-68
2022/01/10 07:15:11;;;;;;;141.83;38.20;;;;;;;;;;5040104;28;20197;-68
2022/01/10 07:17:36;;;;;;;116.57;36.07;;;;;;;;;;5041855;28;20185;-67
2022/01/10 07:20:02;;;;;;;107.83;35.10;;;;;;;;;;5039175;28;20196;-67
2022/01/10 07:22:27;;;;;;;76.73;31.30;;;;;;;;;;4346045;28;10000808;-67
2022/01/10 07:24:53;;;;;;;77.57;33.00;;;;;;;;;;5040830;28;20302;-68
2022/01/10 07:27:18;;;;;;;82.43;34.50;;;;;;;;;;5038914;28;20188;-67
2022/01/10 07:29:45;;;;;;;107.23;34.77;;;;;;;;;;5040993;28;20571;-67
2022/01/10 07:32:10;;;;;;;133.97;36.07;;;;;;;;;;5039135;28;20589;-67
2022/01/10 07:34:36;;;;;;;142.10;38.17;;;;;;;;;;5039689;28;20193;-68
2022/01/10 07:37:02;;;;;;;99.50;35.63;;;;;;;;;;5037603;28;20193;-68
2022/01/10 07:39:27;;;;;;;90.70;35.83;;;;;;;;;;5039872;28;20193;-68
2022/01/10 07:41:52;;;;;;;78.97;32.73;;;;;;;;;;5036794;28;20553;-68
2022/01/10 07:44:18;;;;;;;65.17;30.43;;;;;;;;;;5038646;28;20210;-68
2022/01/10 07:46:43;;;;;;;75.23;30.57;;;;;;;;;;5038249;28;20185;-68
2022/01/10 07:49:08;;;;;;;73.83;32.70;;;;;;;;;;5035624;28;20563;-68
2022/01/10 07:51:34;;;;;;;97.67;34.60;;;;;;;;;;5037639;28;20235;-68
2022/01/10 07:53:59;;;;;;;78.53;31.93;;;;;;;;;;5036429;28;20194;-68
2022/01/10 07:56:26;;;;;;;85.03;33.33;;;;;;;;;;5040017;28;20185;-67
2022/01/10 07:58:52;;;;;;;113.70;34.37;;;;;;;;;;5035257;28;20201;-67
2022/01/10 08:01:19;;;;;;;93.83;34.40;;;;;;;;;;5036200;28;20193;-67
2022/01/10 08:03:46;;;;;;;84.33;34.50;;;;;;;;;;5040330;28;20220;-67
2022/01/10 08:06:12;;;;;;;91.07;35.37;;;;;;;;;;5040825;28;20275;-68
2022/01/10 08:08:37;;;;;;;101.37;34.00;;;;;;;;;;5043325;28;20273;-67
2022/01/10 08:11:03;;;;;;;84.30;32.03;;;;;;;;;;5039191;28;20615;-68
2022/01/10 08:13:28;;;;;;;105.57;34.07;;;;;;;;;;5042682;28;20189;-67
2022/01/10 08:15:54;;;;;;;69.60;31.43;;;;;;;;;;5042567;28;21213;-68
2022/01/10 08:18:19;;;;;;;66.73;31.13;;;;;;;;;;5041543;28;20211;-67
2022/01/10 08:20:45;;;;;;;62.57;30.93;;;;;;;;;;5038706;28;20246;-68
2022/01/10 08:23:11;;;;;;;57.63;30.10;;;;;;;;;;5041734;28;20582;-68
2022/01/10 08:25:36;;;;;;;63.50;32.43;;;;;;;;;;5041136;28;20257;-68
2022/01/10 08:28:02;;;;;;;70.43;32.37;;;;;;;;;;5040309;28;20189;-67
2022/01/10 08:30:27;;;;;;;84.80;34.00;;;;;;;;;;5042766;28;20693;-67
2022/01/10 08:32:53;;;;;;;79.77;34.07;;;;;;;;;;5040467;28;20178;-67
2022/01/10 08:35:19;;;;;;;71.73;32.13;;;;;;;;;;5043125;28;20573;-67
2022/01/10 08:37:45;;;;;;;78.20;33.20;;;;;;;;;;5044066;28;20189;-68
2022/01/10 08:40:11;;;;;;;75.03;31.93;;;;;;;;;;5044048;28;20185;-67
2022/01/10 08:42:37;;;;;;;70.63;30.23;;;;;;;;;;5043094;28;20649;-67
2022/01/10 08:45:03;;;;;;;84.07;31.57;;;;;;;;;;5043725;28;20218;-67
2022/01/10 08:47:29;;;;;;;84.33;32.37;;;;;;;;;;5042784;28;20245;-68
2022/01/10 08:49:55;;;;;;;89.00;33.53;;;;;;;;;;5043867;28;20189;-67
2022/01/10 08:52:20;;;;;;;104.93;34.80;;;;;;;;;;5043379;28;20538;-68
2022/01/10 08:54:48;;;;;;;103.60;35.23;;;;;;;;;;5042735;28;20219;-67
2022/01/10 08:57:15;;;;;;;106.90;34.17;;;;;;;;;;5041478;28;20557;-67
2022/01/10 08:59:40;;;;;;;98.17;33.77;;;;;;;;;;5041449;28;20259;-68
2022/01/10 09:02:07;;;;;;;148.20;35.83;;;;;;;;;;5040012;28;20664;-67
2022/01/10 09:04:32;;;;;;;111.33;34.87;;;;;;;;;;5040928;28;20775;-69
2022/01/10 09:06:59;;;;;;;93.80;33.13;;;;;;;;;;5042548;28;20268;-68
2022/01/10 09:09:24;;;;;;;92.80;34.50;;;;;;;;;;5035753;28;20619;-67
2022/01/10 09:11:50;;;;;;;73.87;33.67;;;;;;;;;;5041778;28;20193;-68
2022/01/10 09:14:16;;;;;;;98.47;34.63;;;;;;;;;;5038361;28;20563;-68
2022/01/10 09:16:42;;;;;;;99.30;36.13;;;;;;;;;;5043134;28;20181;-68
2022/01/10 09:19:07;;;;;;;74.10;34.87;;;;;;;;;;5042332;28;20309;-68
2022/01/10 09:21:34;;;;;;;78.63;35.23;;;;;;;;;;5044751;28;20268;-68
2022/01/10 09:24:00;;;;;;;67.13;33.37;;;;;;;;;;5041305;28;20639;-68
2022/01/10 09:26:25;;;;;;;71.03;35.73;;;;;;;;;;5043502;28;20200;-68
2022/01/10 09:28:51;;;;;;;65.13;35.53;;;;;;;;;;5046183;28;20508;-67
2022/01/10 09:31:17;;;;;;;72.50;35.97;;;;;;;;;;5041220;28;20208;-67
2022/01/10 09:33:43;;;;;;;97.17;36.57;;;;;;;;;;5043062;28;20211;-67
2022/01/10 09:36:09;;;;;;;73.30;36.43;;;;;;;;;;5044095;28;20189;-67
2022/01/10 09:38:35;;;;;;;71.13;35.60;;;;;;;;;;5043608;28;20174;-68
2022/01/10 09:41:01;;;;;;;87.53;35.07;;;;;;;;;;5044361;28;20256;-68
2022/01/10 09:43:26;;;;;;;83.33;35.23;;;;;;;;;;5046552;28;20190;-68
2022/01/10 09:45:54;;;;;;;85.90;36.40;;;;;;;;;;5043703;28;20189;-68
2022/01/10 09:48:19;;;;;;;70.17;34.07;;;;;;;;;;5041525;28;20243;-68
2022/01/10 09:50:45;;;;;;;123.80;38.27;;;;;;;;;;5043559;28;20205;-68
2022/01/10 09:53:13;;;;;;;81.23;35.33;;;;;;;;;;5043956;28;20177;-68
2022/01/10 09:55:38;;;;;;;89.77;35.97;;;;;;;;;;5042382;28;20299;-68
2022/01/10 09:58:04;;;;;;;90.40;35.80;;;;;;;;;;5045242;28;20700;-67
2022/01/10 10:00:30;;;;;;;96.07;36.60;;;;;;;;;;5041460;28;20213;-68
2022/01/10 10:02:56;;;;;;;92.60;35.60;;;;;;;;;;5039649;28;20212;-68
2022/01/10 10:05:22;;;;;;;99.10;34.13;;;;;;;;;;5043197;28;20653;-68
2022/01/10 10:07:48;;;;;;;102.23;34.83;;;;;;;;;;5044841;28;20189;-68
2022/01/10 10:10:14;;;;;;;96.83;34.67;;;;;;;;;;5036388;28;20209;-68
2022/01/10 10:12:42;;;;;;;91.20;34.53;;;;;;;;;;5041973;28;20177;-68
2022/01/10 10:15:10;;;;;;;79.20;33.73;;;;;;;;;;5039513;28;20189;-67
2022/01/10 10:17:37;;;;;;;105.33;34.60;;;;;;;;;;5041284;28;20190;-67
2022/01/10 10:20:10;;;;;;;114.03;35.47;;;;;;;;;;5045491;28;20185;-67
2022/01/10 10:22:39;;;;;;;87.93;32.93;;;;;;;;;;5042352;28;20292;-68
2022/01/10 10:25:07;;;;;;;80.30;31.30;;;;;;;;;;5040022;28;20173;-67
2022/01/10 10:27:37;;;;;;;81.73;35.67;;;;;;;;;;5041325;28;20182;-68
2022/01/10 10:30:12;;;;;;;137.53;37.53;;;;;;;;;;5036462;28;20239;-68
2022/01/10 10:32:38;;;;;;;86.37;32.17;;;;;;;;;;5038061;28;20288;-69
2022/01/10 10:35:06;;;;;;;109.53;35.40;;;;;;;;;;5043124;28;20276;-68
2022/01/10 10:37:35;;;;;;;180.27;42.27;;;;;;;;;;5042572;28;20181;-68
2022/01/10 10:40:03;;;;;;;95.43;34.13;;;;;;;;;;5044161;28;20197;-68
2022/01/10 10:42:29;;;;;;;100.63;33.60;;;;;;;;;;5044151;28;20817;-68
2022/01/10 10:44:56;;;;;;;106.43;37.00;;;;;;;;;;5044183;28;20185;-69
2022/01/10 10:47:26;;;;;;;86.53;32.27;;;;;;;;;;5039813;28;20216;-68
2022/01/10 10:49:57;;;;;;;73.47;31.63;;;;;;;;;;5045098;28;20645;-68
2022/01/10 10:52:22;;;;;;;85.17;29.87;;;;;;;;;;5041293;28;20230;-68
2022/01/10 10:54:47;;;;;;;78.10;30.07;;;;;;;;;;5030074;28;20185;-69
2022/01/10 10:57:14;;;;;;;70.13;29.97;;;;;;;;;;5042372;28;20174;-67
2022/01/10 10:59:43;;;;;;;64.03;30.00;;;;;;;;;;5039057;28;20249;-68
2022/01/10 11:02:09;;;;;;;98.50;32.60;;;;;;;;;;5037747;28;20212;-68
2022/01/10 11:04:35;;;;;;;97.30;32.93;;;;;;;;;;5039107;28;20205;-68
2022/01/10 11:07:00;;;;;;;144.07;37.13;;;;;;;;;;5039363;28;20276;-68
2022/01/10 11:09:26;;;;;;;125.53;36.63;;;;;;;;;;5042943;28;20181;-68
2022/01/10 11:11:52;;;;;;;97.60;32.73;;;;;;;;;;5041843;28;20251;-69
2022/01/10 11:14:22;;;;;;;64.77;27.97;;;;;;;;;;5040135;28;20181;-69
2022/01/10 11:16:49;;;;;;;78.63;29.63;;;;;;;;;;5042892;28;20219;-68
2022/01/10 11:19:26;;;;;;;99.90;30.40;;;;;;;;;;5040646;28;20185;-68
2022/01/10 11:22:01;;;;;;;81.50;31.30;;;;;;;;;;5042240;28;20236;-68
2022/01/10 11:24:49;;;;;;;114.33;29.47;;;;;;;;;;5041014;28;20407;-68
2022/01/10 11:27:30;;;;;;;74.03;28.60;;;;;;;;;;5041086;28;20192;-68
2022/01/10 11:29:57;;;;;;;62.57;28.07;;;;;;;;;;5038272;28;20330;-68
2022/01/10 11:33:07;;;;;;;85.93;29.90;;;;;;;;;;5038160;28;20554;-69
2022/01/10 11:35:37;;;;;;;72.33;26.97;;;;;;;;;;5040923;28;20196;-69
2022/01/10 11:38:21;;;;;;;77.87;27.87;;;;;;;;;;5041072;28;20482;-68
2022/01/10 11:40:49;;;;;;;115.83;30.03;;;;;;;;;;5045595;28;20652;-68
2022/01/10 11:43:33;;;;;;;91.03;28.93;;;;;;;;;;5038616;28;20200;-69
2022/01/10 11:46:32;;;;;;;138.23;34.60;;;;;;;;;;5044613;28;20190;-68
2022/01/10 11:49:04;;;;;;;76.33;28.50;;;;;;;;;;5042286;28;20197;-68
2022/01/10 11:51:56;;;;;;;101.90;28.93;;;;;;;;;;5045988;28;20266;-68
2022/01/10 11:54:35;;;;;;;110.70;29.37;;;;;;;;;;5039383;28;20196;-68
2022/01/10 11:57:16;;;;;;;76.93;27.40;;;;;;;;;;5040376;28;20212;-68
2022/01/10 11:59:45;;;;;;;112.97;29.90;;;;;;;;;;5043793;28;20225;-68
2022/01/10 12:02:14;;;;;;;85.40;28.93;;;;;;;;;;5045358;28;20216;-68
2022/01/10 12:04:47;;;;;;;63.13;28.27;;;;;;;;;;5047101;28;20678;-69
2022/01/10 12:07:15;;;;;;;66.03;30.97;;;;;;;;;;5036602;28;20290;-69
2022/01/10 12:09:41;;;;;;;51.03;27.43;;;;;;;;;;5049298;28;20200;-69
2022/01/10 12:12:12;;;;;;;86.73;30.13;;;;;;;;;;5042010;28;20181;-68
2022/01/10 12:14:38;;;;;;;96.63;29.87;;;;;;;;;;5042587;28;20200;-68
2022/01/10 12:17:04;;;;;;;65.73;29.40;;;;;;;;;;5050535;28;20193;-69
2022/01/10 12:19:29;;;;;;;133.00;30.80;;;;;;;;;;5046602;28;20185;-69
2022/01/10 12:21:55;;;;;;;111.47;30.87;;;;;;;;;;5043169;28;20194;-68
2022/01/10 12:24:21;;;;;;;105.00;28.73;;;;;;;;;;5043204;28;20209;-69
2022/01/10 12:26:47;;;;;;;92.93;30.70;;;;;;;;;;5046664;28;20186;-69
2022/01/10 12:29:14;;;;;;;125.27;31.47;;;;;;;;;;5043663;28;20182;-68
2022/01/10 12:31:42;;;;;;;86.90;29.23;;;;;;;;;;5042491;28;20224;-69
2022/01/10 12:34:09;;;;;;;90.37;30.50;;;;;;;;;;5043491;28;20209;-69
2022/01/10 12:36:36;;;;;;;92.03;29.07;;;;;;;;;;5044380;28;20554;-68
2022/01/10 12:39:23;;;;;;;89.77;29.63;;;;;;;;;;5041742;28;20204;-68
2022/01/10 12:41:49;;;;;;;89.63;28.47;;;;;;;;;;5043435;28;20670;-69
2022/01/10 12:44:15;;;;;;;87.07;28.03;;;;;;;;;;5043749;28;20205;-68
2022/01/10 12:46:41;;;;;;;86.27;29.60;;;;;;;;;;5046144;28;20265;-68
2022/01/10 12:49:08;;;;;;;64.53;27.40;;;;;;;;;;5043370;28;20221;-68
2022/01/10 12:51:37;;;;;;;128.37;33.33;;;;;;;;;;5042703;28;20189;-69
2022/01/10 12:54:05;;;;;;;74.77;29.87;;;;;;;;;;5042334;28;20200;-69
2022/01/10 12:56:30;;;;;;;117.37;28.80;;;;;;;;;;5039198;28;20181;-68
2022/01/10 12:58:56;;;;;;;77.83;27.63;;;;;;;;;;5040877;28;20282;-68
2022/01/10 13:01:22;;;;;;;79.90;28.70;;;;;;;;;;5039506;28;20265;-68
2022/01/10 13:03:59;;;;;;;70.50;27.20;;;;;;;;;;5043680;28;20299;-69
2022/01/10 13:06:27;;;;;;;69.13;28.13;;;;;;;;;;5041370;28;20249;-68
2022/01/10 13:08:54;;;;;;;68.83;27.37;;;;;;;;;;5041817;28;20258;-68
2022/01/10 13:11:22;;;;;;;78.63;28.27;;;;;;;;;;5045321;28;20201;-68
2022/01/10 13:13:48;;;;;;;73.43;28.90;;;;;;;;;;5042548;28;20178;-68
2022/01/10 13:16:21;;;;;;;78.97;27.07;;;;;;;;;;5046049;28;20839;-68
2022/01/10 13:19:03;;;;;;;61.43;26.97;;;;;;;;;;5044698;28;20182;-69
2022/01/10 13:21:37;;;;;;;97.63;29.53;;;;;;;;;;5037161;28;20201;-69
2022/01/10 13:24:17;;;;;;;66.30;28.33;;;;;;;;;;5041744;28;20255;-68
2022/01/10 13:27:03;;;;;;;69.47;29.40;;;;;;;;;;5041664;28;20238;-69
2022/01/10 13:29:50;;;;;;;59.57;28.30;;;;;;;;;;5041299;28;20273;-68
2022/01/10 13:32:35;;;;;;;57.60;29.23;;;;;;;;;;5045162;28;20734;-69
2022/01/10 13:35:00;;;;;;;70.77;29.93;;;;;;;;;;5043973;28;20525;-69
2022/01/10 13:37:36;;;;;;;61.13;28.87;;;;;;;;;;5044081;28;20260;-69
2022/01/10 13:40:14;;;;;;;66.40;29.93;;;;;;;;;;5044928;28;20386;-68
2022/01/10 13:42:59;;;;;;;66.60;29.40;;;;;;;;;;5045060;28;20527;-68
2022/01/10 13:45:49;;;;;;;75.87;31.43;;;;;;;;;;5043228;28;20213;-68
2022/01/10 13:48:19;;;;;;;106.13;34.87;;;;;;;;;;5044740;28;20276;-68
2022/01/10 13:50:53;;;;;;;67.47;32.30;;;;;;;;;;5045524;28;20711;-67
2022/01/10 13:53:31;;;;;;;66.77;32.63;;;;;;;;;;5039783;28;20228;-68
2022/01/10 13:56:12;;;;;;;68.87;31.27;;;;;;;;;;5040297;28;20275;-68
2022/01/10 13:58:42;;;;;;;73.00;33.83;;;;;;;;;;5041685;28;20268;-68
2022/01/10 14:01:10;;;;;;;73.13;32.70;;;;;;;;;;5041464;28;20229;-68
2022/01/10 14:03:36;;;;;;;93.53;34.47;;;;;;;;;;5039277;28;20209;-68
2022/01/10 14:06:16;;;;;;;88.70;34.67;;;;;;;;;;4343984;28;10000865;-68
2022/01/10 14:08:54;;;;;;;75.97;35.00;;;;;;;;;;5039048;28;20720;-68
2022/01/10 14:11:22;;;;;;;70.27;34.33;;;;;;;;;;5037921;28;20185;-68
2022/01/10 14:13:52;;;;;;;75.03;35.93;;;;;;;;;;5040504;28;20720;-68
2022/01/10 14:16:21;;;;;;;85.60;35.90;;;;;;;;;;5041474;28;20195;-68
2022/01/10 14:18:47;;;;;;;97.73;34.00;;;;;;;;;;5037978;28;20567;-68
2022/01/10 14:21:13;;;;;;;85.83;36.10;;;;;;;;;;5042524;28;20560;-68
2022/01/10 14:23:39;;;;;;;71.73;35.13;;;;;;;;;;5034708;28;20209;-68
2022/01/10 14:26:07;;;;;;;84.73;36.27;;;;;;;;;;5037606;28;20198;-68
2022/01/10 14:28:33;;;;;;;79.07;34.60;;;;;;;;;;5040477;28;20360;-68